Time;durP1;ratioP1;P1;durP2;ratioP2;P2;SDS_P1;SDS_P2;PMS_P1;PMS_P2;Temp;Humidity;BMP_temperature;BMP_pressure;BME280_temperature;BME280_humidity;BME280_pressure;Samples;Min_cycle;Max_cycle;Signal;HPM_P1;HPM_P2
2023/12/22 00:01:09;;;;;;;6.45;3.75;;;4.30;99.90;;;;;;4891409;29;20467;-77
2023/12/22 00:03:35;;;;;;;8.20;3.83;;;4.30;99.90;;;;;;4893429;29;20043;-76
2023/12/22 00:06:00;;;;;;;5.75;3.22;;;4.20;99.90;;;;;;4895237;29;20043;-76
2023/12/22 00:08:26;;;;;;;7.68;3.10;;;4.20;99.90;;;;;;4894568;29;20534;-77
2023/12/22 00:10:52;;;;;;;6.20;3.40;;;4.10;99.90;;;;;;4895656;29;20116;-76
2023/12/22 00:13:17;;;;;;;5.60;3.30;;;4.10;99.90;;;;;;4897543;29;20359;-75
2023/12/22 00:15:43;;;;;;;5.43;2.97;;;4.10;99.90;;;;;;4895804;29;20384;-75
2023/12/22 00:18:09;;;;;;;5.60;3.08;;;4.00;99.90;;;;;;4898332;29;20043;-75
2023/12/22 00:20:34;;;;;;;6.45;3.40;;;4.00;99.90;;;;;;4898299;29;20067;-76
2023/12/22 00:23:00;;;;;;;6.60;3.10;;;4.10;99.90;;;;;;4898446;29;20074;-75
2023/12/22 00:25:26;;;;;;;7.45;3.35;;;4.00;99.90;;;;;;4898597;29;21163;-75
2023/12/22 00:27:52;;;;;;;6.35;2.55;;;4.00;99.90;;;;;;4899100;29;20044;-75
2023/12/22 00:30:18;;;;;;;4.65;2.67;;;4.00;99.90;;;;;;4898068;29;20048;-75
2023/12/22 00:32:43;;;;;;;4.18;2.33;;;4.00;99.90;;;;;;4897635;29;20036;-78
2023/12/22 00:35:09;;;;;;;5.88;2.47;;;4.30;99.90;;;;;;4899966;29;20087;-75
2023/12/22 00:37:35;;;;;;;6.55;2.95;;;4.60;99.90;;;;;;4897659;29;20483;-75
2023/12/22 00:40:01;;;;;;;5.38;2.60;;;4.80;99.80;;;;;;4898018;29;20032;-76
2023/12/22 00:42:26;;;;;;;7.10;2.60;;;5.00;99.30;;;;;;4898435;29;20497;-75
2023/12/22 00:44:52;;;;;;;5.72;3.00;;;4.90;99.90;;;;;;4897759;29;20033;-75
2023/12/22 00:47:18;;;;;;;6.28;3.33;;;4.80;99.90;;;;;;4898248;29;20040;-77
2023/12/22 00:49:43;;;;;;;4.90;2.80;;;4.70;99.90;;;;;;4897239;29;20451;-75
2023/12/22 00:52:09;;;;;;;5.60;2.80;;;4.70;99.90;;;;;;4897258;29;20037;-74
2023/12/22 00:54:35;;;;;;;6.88;3.30;;;4.70;99.90;;;;;;4898537;29;20570;-76
2023/12/22 00:57:00;;;;;;;6.60;3.05;;;4.60;99.90;;;;;;4898740;29;20036;-75
2023/12/22 00:59:26;;;;;;;8.60;3.13;;;4.60;99.90;;;;;;4896156;29;20116;-75
2023/12/22 01:01:52;;;;;;;6.78;2.90;;;4.60;99.90;;;;;;4896199;29;20058;-76
2023/12/22 01:04:18;;;;;;;9.15;3.50;;;4.70;99.90;;;;;;4897914;29;20063;-75
2023/12/22 01:06:44;;;;;;;6.40;3.70;;;4.80;99.90;;;;;;4896763;29;24242;-75
2023/12/22 01:09:10;;;;;;;7.68;3.13;;;4.90;99.80;;;;;;4897782;29;20040;-75
2023/12/22 01:11:36;;;;;;;6.10;3.42;;;4.80;99.90;;;;;;4899987;29;20070;-75
2023/12/22 01:14:02;;;;;;;5.70;3.17;;;4.80;99.90;;;;;;4901687;29;20509;-75
2023/12/22 01:16:27;;;;;;;5.05;2.90;;;4.60;99.90;;;;;;4902572;29;20123;-75
2023/12/22 01:18:53;;;;;;;7.00;3.13;;;4.80;99.60;;;;;;4901627;29;20135;-75
2023/12/22 01:21:19;;;;;;;12.57;3.63;;;5.10;99.00;;;;;;4898904;29;20036;-75
2023/12/22 01:23:45;;;;;;;6.93;3.60;;;5.30;98.60;;;;;;4902281;29;20301;-76
2023/12/22 01:26:10;;;;;;;9.00;4.07;;;5.30;98.80;;;;;;4900946;29;20033;-75
2023/12/22 01:28:36;;;;;;;6.45;3.80;;;4.70;99.90;;;;;;4900752;29;20048;-75
2023/12/22 01:31:02;;;;;;;10.15;5.20;;;4.20;99.90;;;;;;4900486;29;20036;-75
2023/12/22 01:33:29;;;;;;;8.57;3.83;;;4.20;99.90;;;;;;4899747;29;20033;-75
2023/12/22 01:35:55;;;;;;;11.40;4.50;;;4.50;99.90;;;;;;4901018;29;20046;-75
2023/12/22 01:38:21;;;;;;;8.23;4.22;;;4.50;99.90;;;;;;4902056;29;20573;-75
2023/12/22 01:40:47;;;;;;;5.65;3.30;;;4.50;99.90;;;;;;4899804;29;20119;-74
2023/12/22 01:43:14;;;;;;;5.40;3.00;;;4.60;99.90;;;;;;4901255;29;20084;-75
2023/12/22 01:45:43;;;;;;;5.68;2.90;;;4.70;99.90;;;;;;4902378;29;20032;-75
2023/12/22 01:48:09;;;;;;;4.95;2.50;;;4.90;99.90;;;;;;4901169;29;20394;-74
2023/12/22 01:50:36;;;;;;;9.27;2.95;;;5.00;99.90;;;;;;4900187;29;20158;-75
2023/12/22 01:53:02;;;;;;;5.43;2.90;;;5.00;99.90;;;;;;4900941;29;20131;-75
2023/12/22 01:55:29;;;;;;;6.43;3.28;;;4.90;99.90;;;;;;4901691;29;20046;-74
2023/12/22 01:57:55;;;;;;;6.95;3.78;;;5.00;99.90;;;;;;4899841;29;20046;-75
2023/12/22 02:00:21;;;;;;;5.85;3.00;;;5.10;99.60;;;;;;4900128;29;20043;-76
2023/12/22 02:02:47;;;;;;;4.95;2.42;;;5.10;99.90;;;;;;4900080;29;20637;-75
2023/12/22 02:05:13;;;;;;;4.72;2.78;;;5.30;99.20;;;;;;4899042;29;20042;-74
2023/12/22 02:07:42;;;;;;;9.98;4.97;;;5.30;99.50;;;;;;4899555;29;20086;-75
2023/12/22 02:10:09;;;;;;;12.38;6.25;;;4.70;99.90;;;;;;4899082;29;20048;-75
2023/12/22 02:12:37;;;;;;;10.20;5.93;;;4.40;99.90;;;;;;4900488;29;20120;-75
2023/12/22 02:15:05;;;;;;;13.65;5.68;;;4.20;99.90;;;;;;4900182;29;20131;-74
2023/12/22 02:17:50;;;;;;;13.00;5.35;;;4.10;99.90;;;;;;4901528;29;20031;-74
2023/12/22 02:20:16;;;;;;;8.93;5.28;;;4.10;99.90;;;;;;4899835;29;20060;-74
2023/12/22 02:22:42;;;;;;;15.07;4.65;;;4.20;99.90;;;;;;4899465;29;20154;-74
2023/12/22 02:25:08;;;;;;;7.57;3.53;;;4.30;99.90;;;;;;4896684;29;20562;-75
2023/12/22 02:27:45;;;;;;;5.30;2.53;;;4.80;99.90;;;;;;4901047;29;20040;-74
2023/12/22 02:30:23;;;;;;;7.45;4.10;;;5.30;99.80;;;;;;4899722;29;20521;-74
2023/12/22 02:32:53;;;;;;;8.50;4.78;;;5.00;99.90;;;;;;4901032;29;20082;-74
2023/12/22 02:35:25;;;;;;;8.80;4.78;;;4.60;99.90;;;;;;4900249;29;20058;-75
2023/12/22 02:37:54;;;;;;;8.20;4.15;;;4.40;99.90;;;;;;4899590;29;20040;-74
2023/12/22 02:40:20;;;;;;;6.47;3.75;;;4.60;99.90;;;;;;4898922;29;20035;-75
2023/12/22 02:42:46;;;;;;;7.90;3.60;;;4.70;99.90;;;;;;4900005;29;20075;-74
2023/12/22 02:45:16;;;;;;;5.63;2.70;;;4.80;99.90;;;;;;4899180;29;20042;-74
2023/12/22 02:47:42;;;;;;;6.68;3.17;;;4.90;99.90;;;;;;4899556;29;20522;-74
2023/12/22 02:50:09;;;;;;;5.65;2.88;;;5.00;99.90;;;;;;4899292;29;20040;-74
2023/12/22 02:52:35;;;;;;;4.88;2.83;;;5.30;99.70;;;;;;4898593;29;21731;-75
2023/12/22 02:55:01;;;;;;;9.65;3.17;;;5.30;99.90;;;;;;4900981;29;20126;-74
2023/12/22 02:57:27;;;;;;;7.90;3.15;;;5.10;99.90;;;;;;4899972;29;20095;-77
2023/12/22 02:59:52;;;;;;;8.13;3.10;;;5.00;99.90;;;;;;4899557;29;20404;-75
2023/12/22 03:02:18;;;;;;;6.57;3.28;;;4.90;99.90;;;;;;4898803;29;20162;-74
2023/12/22 03:04:46;;;;;;;6.05;3.65;;;4.90;99.90;;;;;;4899817;29;20060;-75
2023/12/22 03:07:12;;;;;;;7.60;3.47;;;4.90;99.90;;;;;;4899682;29;20519;-75
2023/12/22 03:09:38;;;;;;;5.18;2.92;;;4.80;99.90;;;;;;4897706;29;21635;-74
2023/12/22 03:12:04;;;;;;;10.10;3.28;;;4.70;99.90;;;;;;4898715;29;20127;-76
2023/12/22 03:14:33;;;;;;;6.30;3.08;;;4.80;99.90;;;;;;4901169;29;20040;-74
2023/12/22 03:16:59;;;;;;;7.82;3.40;;;4.80;99.90;;;;;;4899012;29;20058;-74
2023/12/22 03:19:25;;;;;;;5.72;2.83;;;4.70;99.90;;;;;;4898874;29;20062;-75
2023/12/22 03:21:50;;;;;;;8.80;3.53;;;4.70;99.90;;;;;;4898594;29;20494;-74
2023/12/22 03:24:19;;;;;;;10.40;3.35;;;4.70;99.90;;;;;;4898595;29;20042;-74
2023/12/22 03:26:45;;;;;;;7.65;2.78;;;4.70;99.90;;;;;;4899038;29;20373;-75
2023/12/22 03:29:10;;;;;;;6.20;3.00;;;4.70;99.90;;;;;;4900119;29;20036;-74
2023/12/22 03:31:36;;;;;;;7.50;2.97;;;4.70;99.90;;;;;;4896710;29;20099;-74
2023/12/22 03:34:02;;;;;;;8.45;3.35;;;4.70;99.90;;;;;;4897623;29;20032;-75
2023/12/22 03:36:27;;;;;;;6.05;3.17;;;4.50;99.90;;;;;;4899866;29;20047;-74
2023/12/22 03:38:53;;;;;;;6.22;2.55;;;4.50;99.90;;;;;;4897964;29;20131;-74
2023/12/22 03:41:19;;;;;;;9.35;3.70;;;4.50;99.90;;;;;;4898056;29;20124;-76
2023/12/22 03:43:44;;;;;;;6.78;3.33;;;4.70;99.90;;;;;;4899488;29;20119;-75
2023/12/22 03:46:10;;;;;;;7.10;3.40;;;4.80;99.90;;;;;;4881858;29;20040;-75
2023/12/22 03:48:36;;;;;;;6.68;3.63;;;4.70;99.90;;;;;;4880953;29;20032;-76
2023/12/22 03:51:01;;;;;;;6.75;3.88;;;4.70;99.90;;;;;;4899332;29;20044;-74
2023/12/22 03:53:27;;;;;;;6.97;3.20;;;4.60;99.90;;;;;;4898402;29;20375;-74
2023/12/22 03:55:53;;;;;;;9.18;3.83;;;4.80;99.90;;;;;;4900357;29;20394;-75
2023/12/22 03:58:18;;;;;;;5.45;2.90;;;4.90;99.90;;;;;;4897590;29;20115;-74
2023/12/22 04:00:44;;;;;;;7.35;3.80;;;4.70;99.90;;;;;;4896219;29;20507;-74
2023/12/22 04:03:09;;;;;;;8.48;4.57;;;4.50;99.90;;;;;;4896094;29;20064;-75
2023/12/22 04:05:35;;;;;;;10.20;5.30;;;4.30;99.90;;;;;;4875439;29;20102;-76
2023/12/22 04:08:01;;;;;;;6.70;3.70;;;4.20;99.90;;;;;;4893518;29;20446;-75
2023/12/22 04:10:27;;;;;;;8.27;3.97;;;4.20;99.90;;;;;;4893581;29;20074;-76
2023/12/22 04:12:52;;;;;;;6.85;3.03;;;4.50;99.90;;;;;;4892908;29;20040;-75
2023/12/22 04:15:18;;;;;;;6.90;3.53;;;4.80;99.90;;;;;;4893847;29;20190;-74
2023/12/22 04:17:44;;;;;;;6.25;3.33;;;5.10;99.90;;;;;;4891822;29;20036;-75
2023/12/22 04:20:10;;;;;;;6.97;3.65;;;5.20;99.90;;;;;;4889522;29;20083;-74
2023/12/22 04:22:35;;;;;;;7.00;3.63;;;5.20;99.90;;;;;;4891567;29;20044;-74
2023/12/22 04:25:01;;;;;;;6.50;3.20;;;5.20;99.90;;;;;;4892048;29;20099;-74
2023/12/22 04:27:26;;;;;;;6.63;3.30;;;5.20;99.90;;;;;;4891558;29;20144;-76
2023/12/22 04:29:52;;;;;;;6.80;3.30;;;5.30;99.90;;;;;;4889166;29;20111;-75
2023/12/22 04:32:18;;;;;;;5.70;2.95;;;5.40;99.90;;;;;;4892600;29;20607;-78
2023/12/22 04:34:43;;;;;;;8.75;4.03;;;5.60;99.90;;;;;;4891625;29;20044;-75
2023/12/22 04:37:09;;;;;;;6.47;3.15;;;5.70;99.70;;;;;;4889384;29;20695;-76
2023/12/22 04:39:35;;;;;;;4.70;2.28;;;5.70;99.90;;;;;;4893671;29;20036;-76
2023/12/22 04:42:00;;;;;;;6.35;2.67;;;5.70;99.90;;;;;;4892541;29;20047;-76
2023/12/22 04:44:26;;;;;;;5.53;3.03;;;5.70;99.90;;;;;;4894732;29;20059;-76
2023/12/22 04:46:52;;;;;;;6.80;2.75;;;5.80;99.80;;;;;;4897993;29;20111;-76
2023/12/22 04:49:18;;;;;;;4.88;2.63;;;5.70;99.90;;;;;;4897056;29;20439;-76
2023/12/22 04:51:44;;;;;;;3.90;2.03;;;5.70;99.90;;;;;;4897348;29;20034;-77
2023/12/22 04:54:09;;;;;;;5.07;2.45;;;5.70;99.90;;;;;;4899245;29;20028;-76
2023/12/22 04:56:35;;;;;;;8.60;3.25;;;5.60;99.90;;;;;;4897671;29;20044;-76
2023/12/22 04:59:00;;;;;;;5.32;2.63;;;5.40;99.90;;;;;;4893759;29;21999;-76
2023/12/22 05:01:26;;;;;;;8.57;5.13;;;5.30;99.90;;;;;;4896055;29;20618;-76
2023/12/22 05:03:53;;;;;;;6.32;3.70;;;4.70;99.90;;;;;;4894866;29;20384;-76
2023/12/22 05:06:19;;;;;;;6.93;4.55;;;4.60;99.90;;;;;;4894212;29;20040;-76
2023/12/22 05:08:45;;;;;;;15.50;6.65;;;4.60;99.90;;;;;;4893767;29;20044;-76
2023/12/22 05:11:11;;;;;;;10.38;5.63;;;4.60;99.90;;;;;;4894861;29;20676;-76
2023/12/22 05:13:37;;;;;;;10.57;5.22;;;4.40;99.90;;;;;;4894530;29;20044;-76
2023/12/22 05:16:04;;;;;;;7.38;4.40;;;4.30;99.90;;;;;;4895195;29;20047;-77
2023/12/22 05:18:30;;;;;;;5.85;3.00;;;4.30;99.90;;;;;;4892635;29;20479;-76
2023/12/22 05:20:55;;;;;;;8.60;4.32;;;4.90;99.90;;;;;;4894393;29;20058;-76
2023/12/22 05:23:21;;;;;;;8.20;5.00;;;4.80;99.90;;;;;;4895814;29;20612;-75
2023/12/22 05:25:47;;;;;;;11.82;4.88;;;4.40;99.90;;;;;;4895035;29;20175;-75
2023/12/22 05:28:13;;;;;;;6.82;4.00;;;4.20;99.90;;;;;;4895741;29;20048;-76
2023/12/22 05:30:38;;;;;;;7.60;4.03;;;4.30;99.90;;;;;;4898077;29;20044;-75
2023/12/22 05:33:04;;;;;;;12.13;5.00;;;4.40;99.90;;;;;;4895757;29;20036;-75
2023/12/22 05:35:30;;;;;;;14.57;4.97;;;4.40;99.90;;;;;;4896243;29;20040;-76
2023/12/22 05:37:55;;;;;;;10.63;5.35;;;4.40;99.90;;;;;;4897068;29;20036;-76
2023/12/22 05:40:21;;;;;;;9.23;4.93;;;4.20;99.90;;;;;;4896340;29;20068;-76
2023/12/22 05:42:47;;;;;;;8.82;4.53;;;4.20;99.90;;;;;;4896617;29;20098;-76
2023/12/22 05:45:14;;;;;;;6.47;3.67;;;4.30;99.90;;;;;;4898019;29;20067;-75
2023/12/22 05:47:40;;;;;;;7.53;4.20;;;4.50;99.90;;;;;;4895983;29;20042;-75
2023/12/22 05:50:07;;;;;;;9.45;4.03;;;4.50;99.90;;;;;;4895897;29;20036;-75
2023/12/22 05:52:32;;;;;;;11.55;4.78;;;4.50;99.90;;;;;;4897928;29;20040;-76
2023/12/22 05:54:58;;;;;;;12.98;6.78;;;4.50;99.90;;;;;;4896368;29;21665;-75
2023/12/22 05:57:27;;;;;;;12.32;5.97;;;4.60;99.90;;;;;;4895190;29;20487;-75
2023/12/22 05:59:52;;;;;;;7.75;4.47;;;4.70;99.90;;;;;;4895592;29;20031;-76
2023/12/22 06:02:18;;;;;;;9.70;4.72;;;4.60;99.90;;;;;;4896470;29;20056;-76
2023/12/22 06:04:44;;;;;;;9.43;5.72;;;4.50;99.90;;;;;;4896612;29;20052;-77
2023/12/22 06:07:11;;;;;;;29.83;17.40;;;4.60;99.90;;;;;;4896143;29;20103;-76
2023/12/22 06:09:36;;;;;;;18.67;9.23;;;4.60;99.90;;;;;;4894774;29;20032;-75
2023/12/22 06:12:02;;;;;;;11.70;5.45;;;4.60;99.90;;;;;;4896092;29;20040;-75
2023/12/22 06:14:28;;;;;;;6.95;3.80;;;4.70;99.90;;;;;;4897727;29;21953;-76
2023/12/22 06:16:56;;;;;;;7.78;4.85;;;5.00;99.90;;;;;;4895966;29;20036;-76
2023/12/22 06:19:24;;;;;;;6.72;4.32;;;4.80;99.90;;;;;;4896216;29;20060;-75
2023/12/22 06:21:49;;;;;;;12.73;4.78;;;4.80;99.90;;;;;;4896303;29;20536;-75
2023/12/22 06:24:16;;;;;;;6.13;3.70;;;4.90;99.90;;;;;;4893511;29;20036;-75
2023/12/22 06:26:42;;;;;;;8.55;2.47;;;4.90;99.90;;;;;;4890764;29;20866;-76
2023/12/22 06:29:08;;;;;;;6.65;2.92;;;5.40;99.90;;;;;;4892224;29;20219;-75
2023/12/22 06:31:34;;;;;;;8.57;4.22;;;5.50;99.90;;;;;;4886821;29;20075;-74
2023/12/22 06:34:02;;;;;;;7.82;4.28;;;4.90;99.90;;;;;;4893620;29;20040;-74
2023/12/22 06:36:29;;;;;;;8.32;4.10;;;4.70;99.90;;;;;;4895860;29;20032;-76
2023/12/22 06:38:55;;;;;;;5.93;2.78;;;4.70;99.90;;;;;;4896519;29;20035;-75
2023/12/22 06:41:29;;;;;;;7.03;3.10;;;5.00;99.90;;;;;;4895215;29;20028;-75
2023/12/22 06:43:55;;;;;;;5.68;2.70;;;5.10;99.90;;;;;;4895480;29;20047;-74
2023/12/22 06:46:25;;;;;;;7.35;3.25;;;5.50;99.90;;;;;;4895009;29;20080;-75
2023/12/22 06:48:52;;;;;;;7.40;4.30;;;5.80;99.90;;;;;;4895389;29;20036;-76
2023/12/22 06:51:19;;;;;;;5.80;3.10;;;5.70;99.90;;;;;;4895623;29;20586;-75
2023/12/22 06:53:45;;;;;;;9.68;3.65;;;5.50;99.90;;;;;;4896583;29;20028;-75
2023/12/22 06:56:25;;;;;;;5.45;3.17;;;5.40;99.90;;;;;;4894340;29;20052;-74
2023/12/22 06:58:52;;;;;;;5.95;3.20;;;5.50;99.90;;;;;;4895827;29;20381;-75
2023/12/22 07:01:22;;;;;;;8.32;3.28;;;5.50;99.90;;;;;;4895777;29;20547;-75
2023/12/22 07:03:48;;;;;;;5.55;3.22;;;5.40;99.90;;;;;;4896452;29;20062;-75
2023/12/22 07:06:18;;;;;;;5.78;3.42;;;5.40;99.90;;;;;;4894984;29;20099;-75
2023/12/22 07:08:44;;;;;;;7.80;3.25;;;5.30;99.90;;;;;;4895364;29;21144;-75
2023/12/22 07:11:10;;;;;;;6.22;3.10;;;5.30;99.90;;;;;;4893119;29;20047;-75
2023/12/22 07:13:37;;;;;;;5.95;3.03;;;5.40;99.90;;;;;;4895454;29;20050;-75
2023/12/22 07:16:05;;;;;;;6.40;3.33;;;5.40;99.90;;;;;;4895044;29;25194;-75
2023/12/22 07:18:30;;;;;;;6.50;2.70;;;5.40;99.90;;;;;;4893429;29;20036;-76
2023/12/22 07:21:00;;;;;;;6.50;3.20;;;5.40;99.90;;;;;;4894207;29;20063;-74
2023/12/22 07:23:25;;;;;;;7.60;3.50;;;5.40;99.90;;;;;;4896744;29;20044;-75
2023/12/22 07:25:51;;;;;;;5.18;2.60;;;5.70;99.90;;;;;;4897715;29;20633;-74
2023/12/22 07:28:17;;;;;;;8.88;3.38;;;5.70;99.90;;;;;;4893253;29;20076;-75
2023/12/22 07:30:42;;;;;;;9.55;3.40;;;5.70;99.90;;;;;;4891262;29;20040;-75
2023/12/22 07:33:08;;;;;;;5.53;3.13;;;5.70;99.90;;;;;;4892506;29;20059;-75
2023/12/22 07:35:37;;;;;;;6.25;2.55;;;5.70;99.90;;;;;;4893315;29;20039;-75
2023/12/22 07:38:03;;;;;;;5.15;2.38;;;5.80;99.90;;;;;;4892703;29;20032;-75
2023/12/22 07:40:30;;;;;;;4.78;1.90;;;6.10;99.90;;;;;;4891943;29;20599;-76
2023/12/22 07:42:57;;;;;;;5.28;2.10;;;6.40;99.90;;;;;;4894539;29;20070;-74
2023/12/22 07:45:22;;;;;;;3.15;1.60;;;6.50;99.90;;;;;;4892739;29;20036;-75
2023/12/22 07:47:48;;;;;;;5.35;2.67;;;6.90;99.90;;;;;;4892207;29;20040;-75
2023/12/22 07:50:14;;;;;;;4.18;2.03;;;7.20;99.90;;;;;;4893671;29;20043;-75
2023/12/22 07:52:39;;;;;;;3.70;1.75;;;7.10;99.90;;;;;;4893047;29;20044;-75
2023/12/22 07:55:07;;;;;;;3.75;2.00;;;7.10;99.90;;;;;;4891244;29;20039;-75
2023/12/22 07:57:33;;;;;;;6.47;2.17;;;7.10;99.90;;;;;;4892151;29;20075;-75
2023/12/22 07:59:59;;;;;;;4.18;2.28;;;7.20;99.90;;;;;;4893927;29;20036;-77
2023/12/22 08:02:24;;;;;;;6.82;3.42;;;7.10;99.90;;;;;;4893458;29;20044;-75
2023/12/22 08:04:50;;;;;;;8.00;3.47;;;7.00;99.90;;;;;;4894271;29;20048;-77
2023/12/22 08:07:16;;;;;;;12.98;6.15;;;6.80;99.90;;;;;;4891465;29;20036;-75
2023/12/22 08:09:42;;;;;;;10.13;5.25;;;6.30;99.90;;;;;;4889324;29;20099;-75
2023/12/22 08:12:08;;;;;;;7.63;4.70;;;6.10;99.90;;;;;;4893225;29;20032;-76
2023/12/22 08:14:33;;;;;;;8.15;3.97;;;6.30;99.90;;;;;;4875637;29;20099;-75
2023/12/22 08:16:59;;;;;;;8.77;3.17;;;6.60;99.90;;;;;;4892307;29;20031;-77
2023/12/22 08:19:25;;;;;;;9.38;3.67;;;6.80;99.90;;;;;;4891457;29;20056;-75
2023/12/22 08:21:54;;;;;;;4.65;2.50;;;7.00;99.90;;;;;;4892211;29;20048;-76
2023/12/22 08:24:20;;;;;;;4.32;1.88;;;7.40;99.90;;;;;;4892308;29;20122;-76
2023/12/22 08:26:45;;;;;;;4.38;2.10;;;8.00;99.90;;;;;;4892633;29;20368;-75
2023/12/22 08:29:11;;;;;;;4.75;2.08;;;7.90;99.90;;;;;;4889705;29;20036;-75
2023/12/22 08:31:37;;;;;;;4.68;2.00;;;8.10;99.90;;;;;;4891734;29;20538;-74
2023/12/22 08:34:02;;;;;;;3.53;2.10;;;8.40;99.90;;;;;;4893808;29;20107;-75
2023/12/22 08:36:28;;;;;;;4.10;2.60;;;8.30;99.90;;;;;;4894081;29;20044;-74
2023/12/22 08:38:54;;;;;;;7.55;3.20;;;7.80;99.90;;;;;;4887040;29;20724;-75
2023/12/22 08:41:20;;;;;;;6.40;2.85;;;7.50;99.90;;;;;;4888374;29;21823;-75
2023/12/22 08:43:45;;;;;;;6.07;2.78;;;7.40;99.90;;;;;;4890689;29;20052;-75
2023/12/22 08:46:12;;;;;;;4.80;2.42;;;7.40;99.90;;;;;;4884238;29;20055;-75
2023/12/22 08:48:38;;;;;;;6.05;2.90;;;7.50;99.90;;;;;;4891946;29;21157;-74
2023/12/22 08:51:04;;;;;;;5.70;2.50;;;7.60;99.90;;;;;;4892930;29;20123;-75
2023/12/22 08:53:33;;;;;;;6.03;2.78;;;7.70;99.90;;;;;;4893085;29;20036;-74
2023/12/22 08:56:00;;;;;;;6.35;2.42;;;7.70;99.90;;;;;;4894203;29;20662;-74
2023/12/22 08:58:26;;;;;;;4.80;2.75;;;7.70;99.90;;;;;;4892203;29;20036;-74
2023/12/22 09:00:52;;;;;;;5.25;2.58;;;7.60;99.90;;;;;;4892720;29;20503;-74
2023/12/22 09:03:17;;;;;;;5.60;2.38;;;7.60;99.90;;;;;;4893958;29;20051;-75
2023/12/22 09:05:43;;;;;;;4.97;2.65;;;7.60;99.90;;;;;;4892647;29;20054;-75
2023/12/22 09:08:08;;;;;;;7.82;2.75;;;7.60;99.90;;;;;;4888502;29;20036;-74
2023/12/22 09:10:35;;;;;;;6.10;2.70;;;7.70;99.90;;;;;;4893921;29;20099;-74
2023/12/22 09:13:01;;;;;;;5.03;2.67;;;7.70;99.90;;;;;;4892510;29;20502;-75
2023/12/22 09:15:27;;;;;;;7.70;2.78;;;7.70;99.90;;;;;;4890997;29;20048;-74
2023/12/22 09:17:54;;;;;;;7.55;2.58;;;7.50;99.90;;;;;;4894362;29;20115;-75
2023/12/22 09:20:19;;;;;;;6.10;2.33;;;7.50;99.90;;;;;;4891922;29;20060;-74
2023/12/22 09:22:45;;;;;;;4.85;2.30;;;7.50;99.90;;;;;;4892491;29;20052;-74
2023/12/22 09:25:11;;;;;;;5.30;2.33;;;7.50;99.90;;;;;;4894085;29;20047;-74
2023/12/22 09:27:36;;;;;;;4.82;2.42;;;7.50;99.90;;;;;;4892296;29;20495;-76
2023/12/22 09:30:04;;;;;;;6.05;2.65;;;7.50;99.90;;;;;;4891746;29;20043;-74
2023/12/22 09:32:30;;;;;;;5.80;3.13;;;7.60;99.90;;;;;;4896254;29;20040;-75
2023/12/22 09:34:58;;;;;;;6.53;2.90;;;7.60;99.90;;;;;;4896955;29;20032;-76
2023/12/22 09:37:24;;;;;;;7.70;2.50;;;7.50;99.90;;;;;;4896506;29;20187;-75
2023/12/22 09:39:50;;;;;;;11.52;2.83;;;7.50;99.90;;;;;;4896212;29;20383;-75
2023/12/22 09:42:16;;;;;;;5.88;3.22;;;7.50;99.90;;;;;;4897774;29;20625;-74
2023/12/22 09:44:42;;;;;;;7.93;2.72;;;7.50;99.90;;;;;;4896139;29;20063;-75
2023/12/22 09:47:12;;;;;;;7.18;2.03;;;7.40;99.90;;;;;;4895856;29;20096;-75
2023/12/22 09:49:38;;;;;;;4.80;2.30;;;7.40;99.90;;;;;;4896264;29;20039;-76
2023/12/22 09:52:06;;;;;;;5.45;2.08;;;7.40;99.90;;;;;;4896619;29;20158;-79
2023/12/22 09:54:32;;;;;;;6.20;2.20;;;7.40;99.90;;;;;;4894912;29;20530;-75
2023/12/22 09:57:00;;;;;;;5.03;2.20;;;7.40;99.90;;;;;;4894325;29;20079;-75
2023/12/22 09:59:28;;;;;;;4.13;2.03;;;7.20;99.90;;;;;;4894278;29;20040;-75
2023/12/22 10:01:55;;;;;;;4.90;2.60;;;7.30;99.90;;;;;;4895246;29;21221;-75
2023/12/22 10:04:21;;;;;;;9.10;4.07;;;7.40;99.90;;;;;;4896619;29;21915;-75
2023/12/22 10:06:48;;;;;;;7.88;2.65;;;7.60;99.90;;;;;;4895686;29;21373;-74
2023/12/22 10:09:16;;;;;;;6.43;1.90;;;7.60;99.90;;;;;;4895147;29;20110;-75
2023/12/22 10:11:43;;;;;;;4.28;1.80;;;7.60;99.90;;;;;;4897871;29;20028;-75
2023/12/22 10:14:10;;;;;;;3.92;1.88;;;7.40;99.90;;;;;;4896545;29;20127;-75
2023/12/22 10:16:37;;;;;;;6.82;2.28;;;7.40;99.90;;;;;;4895561;29;20039;-75
2023/12/22 10:19:04;;;;;;;5.07;2.05;;;7.50;99.90;;;;;;4896144;29;20048;-74
2023/12/22 10:21:32;;;;;;;6.28;2.30;;;7.40;99.90;;;;;;4894240;29;20183;-74
2023/12/22 10:23:58;;;;;;;3.95;1.77;;;7.50;99.90;;;;;;4893802;29;20131;-75
2023/12/22 10:26:24;;;;;;;5.03;1.92;;;7.80;99.90;;;;;;4894822;29;20036;-76
2023/12/22 10:28:50;;;;;;;3.50;1.73;;;7.90;99.90;;;;;;4895626;29;20357;-75
2023/12/22 10:31:17;;;;;;;3.30;1.35;;;8.20;99.90;;;;;;4896003;29;20076;-75
2023/12/22 10:33:45;;;;;;;3.45;1.70;;;8.30;99.90;;;;;;4896638;29;20046;-76
2023/12/22 10:36:11;;;;;;;3.10;1.38;;;8.50;99.90;;;;;;4897488;29;20096;-76
2023/12/22 10:38:37;;;;;;;4.38;1.20;;;9.00;99.90;;;;;;4895249;29;20044;-75
2023/12/22 10:41:05;;;;;;;3.08;1.33;;;9.10;99.90;;;;;;4896211;29;20051;-74
2023/12/22 10:43:31;;;;;;;5.45;1.30;;;9.00;99.90;;;;;;4896213;29;20046;-76
2023/12/22 10:45:56;;;;;;;2.60;1.48;;;9.20;99.90;;;;;;4896178;29;20040;-75
2023/12/22 10:48:25;;;;;;;3.10;1.00;;;9.40;99.90;;;;;;4895490;29;20631;-76
2023/12/22 10:50:50;;;;;;;2.38;1.00;;;9.40;99.90;;;;;;4896883;29;20115;-76
2023/12/22 10:53:16;;;;;;;4.10;1.02;;;9.50;99.90;;;;;;4896516;29;20107;-75
2023/12/22 10:55:42;;;;;;;2.08;1.00;;;9.70;99.90;;;;;;4896333;29;20036;-77
2023/12/22 10:58:09;;;;;;;2.60;1.25;;;9.80;99.90;;;;;;4896340;29;20038;-76
2023/12/22 11:00:37;;;;;;;2.97;1.00;;;10.30;99.20;;;;;;4896033;29;20040;-76
2023/12/22 11:03:08;;;;;;;2.28;0.82;;;10.30;99.10;;;;;;4896617;29;20105;-76
2023/12/22 11:05:36;;;;;;;2.80;0.98;;;10.40;98.80;;;;;;4897334;29;20464;-76
2023/12/22 11:08:04;;;;;;;5.57;1.20;;;10.40;99.10;;;;;;4895122;29;20095;-75
2023/12/22 11:10:32;;;;;;;4.65;1.17;;;10.30;99.20;;;;;;4896182;29;20044;-75
2023/12/22 11:12:58;;;;;;;3.17;0.68;;;10.50;99.20;;;;;;4896621;29;20463;-76
2023/12/22 11:15:26;;;;;;;4.57;1.10;;;10.50;99.10;;;;;;4897212;29;20043;-75
2023/12/22 11:17:54;;;;;;;4.10;1.52;;;10.60;98.90;;;;;;4894662;29;20035;-78
2023/12/22 11:20:24;;;;;;;2.72;0.90;;;10.40;99.50;;;;;;4894779;29;21258;-76
2023/12/22 11:22:51;;;;;;;5.13;1.20;;;10.30;99.70;;;;;;4896608;29;20203;-75
2023/12/22 11:25:18;;;;;;;2.42;1.00;;;10.30;99.90;;;;;;4894860;29;21399;-75
2023/12/22 11:27:46;;;;;;;3.53;0.80;;;10.30;99.90;;;;;;4894294;29;20075;-76
2023/12/22 11:30:14;;;;;;;1.60;0.75;;;10.40;99.70;;;;;;4896881;29;20044;-75
2023/12/22 11:32:41;;;;;;;2.25;1.27;;;10.30;99.80;;;;;;4895903;29;20032;-75
2023/12/22 11:35:10;;;;;;;1.90;0.70;;;10.40;99.70;;;;;;4893955;29;20487;-74
2023/12/22 11:37:39;;;;;;;4.82;0.57;;;10.30;99.60;;;;;;4894038;29;20083;-74
2023/12/22 11:40:05;;;;;;;1.55;0.43;;;10.40;99.50;;;;;;4896566;29;20051;-76
2023/12/22 11:42:38;;;;;;;3.83;0.60;;;10.60;99.40;;;;;;4896215;29;21444;-74
2023/12/22 11:45:05;;;;;;;2.35;0.57;;;10.60;99.20;;;;;;4895203;29;20585;-74
2023/12/22 11:47:30;;;;;;;2.33;0.93;;;10.70;99.10;;;;;;4895644;29;20036;-74
2023/12/22 11:49:56;;;;;;;1.08;0.50;;;10.80;99.10;;;;;;4895130;29;21745;-75
2023/12/22 11:52:29;;;;;;;0.85;0.28;;;10.80;98.90;;;;;;4895731;29;20070;-79
2023/12/22 11:54:56;;;;;;;1.27;0.38;;;10.80;98.70;;;;;;4895489;29;20100;-75
2023/12/22 11:57:28;;;;;;;1.60;0.50;;;10.90;98.40;;;;;;4895175;29;20036;-76
2023/12/22 11:59:55;;;;;;;1.75;0.50;;;10.90;98.50;;;;;;4895010;29;20430;-75
2023/12/22 12:02:21;;;;;;;1.17;0.50;;;10.90;98.40;;;;;;4895453;29;20044;-77
2023/12/22 12:04:57;;;;;;;2.28;0.57;;;10.90;98.80;;;;;;4896604;29;20402;-75
2023/12/22 12:07:40;;;;;;;1.63;0.68;;;11.20;98.30;;;;;;4895244;29;20032;-75
2023/12/22 12:10:09;;;;;;;1.35;0.50;;;11.00;98.00;;;;;;4895245;29;20495;-75
2023/12/22 12:12:36;;;;;;;0.55;0.22;;;11.00;97.80;;;;;;4894735;29;20694;-76
2023/12/22 12:15:10;;;;;;;3.22;0.70;;;11.00;97.80;;;;;;4894142;29;20032;-75
2023/12/22 12:17:42;;;;;;;1.00;0.57;;;11.10;98.10;;;;;;4891794;29;20047;-76
2023/12/22 12:20:10;;;;;;;2.03;0.80;;;11.00;97.90;;;;;;4892012;29;20060;-75
2023/12/22 12:22:38;;;;;;;1.42;0.50;;;11.40;98.00;;;;;;4892040;29;20040;-75
2023/12/22 12:25:11;;;;;;;1.58;0.68;;;11.40;97.80;;;;;;4894247;29;20626;-75
2023/12/22 12:27:38;;;;;;;1.52;0.43;;;11.40;97.60;;;;;;4894293;29;20123;-75
2023/12/22 12:30:10;;;;;;;0.57;0.40;;;11.40;97.70;;;;;;4893525;29;20810;-75
2023/12/22 12:32:36;;;;;;;1.33;0.45;;;11.30;97.50;;;;;;4896618;29;20107;-75
2023/12/22 12:35:04;;;;;;;1.00;0.47;;;11.30;97.30;;;;;;4894011;29;20490;-75
2023/12/22 12:37:29;;;;;;;4.75;1.40;;;11.30;97.40;;;;;;4895382;29;20140;-74
2023/12/22 12:40:01;;;;;;;7.43;1.10;;;11.40;97.40;;;;;;4893737;29;20507;-75
2023/12/22 12:42:30;;;;;;;2.50;1.02;;;11.30;97.30;;;;;;4894474;29;20408;-76
2023/12/22 12:44:56;;;;;;;4.25;1.20;;;11.50;97.40;;;;;;4896040;29;20032;-75
2023/12/22 12:47:23;;;;;;;2.40;0.50;;;11.40;97.50;;;;;;4893255;29;20032;-76
2023/12/22 12:49:57;;;;;;;1.13;0.60;;;11.30;97.20;;;;;;4893203;29;20126;-75
2023/12/22 12:52:25;;;;;;;0.82;0.38;;;11.30;97.30;;;;;;4893977;29;20474;-75